sensor_id;sensor_type;location;lat;lon;timestamp;temperature;humidity
27368;DHT22;14839;48.106;11.618;2024-02-21T05:01:51;3.90;94.60
27368;DHT22;14839;48.106;11.618;2024-02-21T05:04:17;3.80;94.60
27368;DHT22;14839;48.106;11.618;2024-02-21T05:06:42;3.80;94.60
27368;DHT22;14839;48.106;11.618;2024-02-21T05:09:09;3.80;94.60
27368;DHT22;14839;48.106;11.618;2024-02-21T05:11:35;3.70;94.60
27368;DHT22;14839;48.106;11.618;2024-02-21T05:14:01;3.60;94.60
27368;DHT22;14839;48.106;11.618;2024-02-21T05:16:27;3.50;94.60
27368;DHT22;14839;48.106;11.618;2024-02-21T05:18:52;3.50;94.60
27368;DHT22;14839;48.106;11.618;2024-02-21T05:21:18;3.50;94.60
27368;DHT22;14839;48.106;11.618;2024-02-21T05:23:44;3.50;94.60
27368;DHT22;14839;48.106;11.618;2024-02-21T05:26:10;3.40;94.60
27368;DHT22;14839;48.106;11.618;2024-02-21T05:28:35;3.40;94.60
27368;DHT22;14839;48.106;11.618;2024-02-21T05:31:01;3.40;94.60
27368;DHT22;14839;48.106;11.618;2024-02-21T05:33:26;3.40;94.60
27368;DHT22;14839;48.106;11.618;2024-02-21T05:35:52;3.30;94.60
27368;DHT22;14839;48.106;11.618;2024-02-21T05:38:18;3.40;94.60
27368;DHT22;14839;48.106;11.618;2024-02-21T05:40:47;3.30;94.60
27368;DHT22;14839;48.106;11.618;2024-02-21T05:43:14;3.30;94.60
27368;DHT22;14839;48.106;11.618;2024-02-21T05:45:39;3.30;94.60
27368;DHT22;14839;48.106;11.618;2024-02-21T05:48:06;3.30;94.60
27368;DHT22;14839;48.106;11.618;2024-02-21T05:50:31;3.40;94.60
27368;DHT22;14839;48.106;11.618;2024-02-21T05:52:58;3.40;94.60
27368;DHT22;14839;48.106;11.618;2024-02-21T05:55:23;3.40;94.60
27368;DHT22;14839;48.106;11.618;2024-02-21T05:57:49;3.50;94.60
27368;DHT22;14839;48.106;11.618;2024-02-21T06:00:15;3.50;94.60
27368;DHT22;14839;48.106;11.618;2024-02-21T06:02:41;3.50;94.60
27368;DHT22;14839;48.106;11.618;2024-02-21T06:05:07;3.50;94.60
27368;DHT22;14839;48.106;11.618;2024-02-21T06:07:34;3.40;94.60
27368;DHT22;14839;48.106;11.618;2024-02-21T06:10:01;3.40;94.60
27368;DHT22;14839;48.106;11.618;2024-02-21T06:12:26;3.40;94.60
27368;DHT22;14839;48.106;11.618;2024-02-21T06:14:52;3.30;94.60
27368;DHT22;14839;48.106;11.618;2024-02-21T06:17:17;3.20;94.60
27368;DHT22;14839;48.106;11.618;2024-02-21T06:19:43;3.30;94.60
27368;DHT22;14839;48.106;11.618;2024-02-21T06:22:10;3.20;94.60
27368;DHT22;14839;48.106;11.618;2024-02-21T06:24:36;3.20;94.60
27368;DHT22;14839;48.106;11.618;2024-02-21T06:27:05;3.20;94.60
27368;DHT22;14839;48.106;11.618;2024-02-21T06:29:34;3.30;94.60
27368;DHT22;14839;48.106;11.618;2024-02-21T06:32:01;3.40;94.60
27368;DHT22;14839;48.106;11.618;2024-02-21T06:34:27;3.50;94.60
27368;DHT22;14839;48.106;11.618;2024-02-21T06:36:52;3.60;94.60
27368;DHT22;14839;48.106;11.618;2024-02-21T06:39:18;3.80;94.60
27368;DHT22;14839;48.106;11.618;2024-02-21T06:41:44;3.80;94.60
27368;DHT22;14839;48.106;11.618;2024-02-21T06:44:09;3.90;94.60
27368;DHT22;14839;48.106;11.618;2024-02-21T06:46:35;4.00;94.60
27368;DHT22;14839;48.106;11.618;2024-02-21T06:49:02;4.10;94.60
27368;DHT22;14839;48.106;11.618;2024-02-21T06:51:29;4.20;94.60
27368;DHT22;14839;48.106;11.618;2024-02-21T06:53:55;4.30;94.60
27368;DHT22;14839;48.106;11.618;2024-02-21T06:56:23;4.30;94.60
27368;DHT22;14839;48.106;11.618;2024-02-21T06:58:52;4.40;94.60
27368;DHT22;14839;48.106;11.618;2024-02-21T07:01:18;4.70;94.60
27368;DHT22;14839;48.106;11.618;2024-02-21T07:03:44;4.90;94.20
27368;DHT22;14839;48.106;11.618;2024-02-21T07:06:10;4.90;93.70
27368;DHT22;14839;48.106;11.618;2024-02-21T07:08:35;4.90;93.60
27368;DHT22;14839;48.106;11.618;2024-02-21T07:11:01;4.90;93.60
27368;DHT22;14839;48.106;11.618;2024-02-21T07:13:26;5.00;93.70
27368;DHT22;14839;48.106;11.618;2024-02-21T07:15:52;5.10;93.40
27368;DHT22;14839;48.106;11.618;2024-02-21T07:18:18;5.10;93.50
27368;DHT22;14839;48.106;11.618;2024-02-21T07:20:43;5.10;93.30
27368;DHT22;14839;48.106;11.618;2024-02-21T07:23:09;5.30;93.40
27368;DHT22;14839;48.106;11.618;2024-02-21T07:25:34;5.40;93.00
27368;DHT22;14839;48.106;11.618;2024-02-21T07:28:00;5.60;92.50
27368;DHT22;14839;48.106;11.618;2024-02-21T07:30:26;5.80;91.70
27368;DHT22;14839;48.106;11.618;2024-02-21T07:32:51;5.90;91.50
27368;DHT22;14839;48.106;11.618;2024-02-21T07:35:20;6.00;91.20
27368;DHT22;14839;48.106;11.618;2024-02-21T07:37:45;6.00;91.40
27368;DHT22;14839;48.106;11.618;2024-02-21T07:40:15;6.20;91.10
27368;DHT22;14839;48.106;11.618;2024-02-21T07:42:41;6.30;90.50
27368;DHT22;14839;48.106;11.618;2024-02-21T07:45:08;6.30;90.20
27368;DHT22;14839;48.106;11.618;2024-02-21T07:47:34;6.30;89.80
27368;DHT22;14839;48.106;11.618;2024-02-21T07:49:59;6.20;89.60
27368;DHT22;14839;48.106;11.618;2024-02-21T07:52:25;6.10;89.80
27368;DHT22;14839;48.106;11.618;2024-02-21T07:54:51;6.00;89.60
27368;DHT22;14839;48.106;11.618;2024-02-21T07:57:16;6.00;90.10
27368;DHT22;14839;48.106;11.618;2024-02-21T07:59:42;5.80;90.50
27368;DHT22;14839;48.106;11.618;2024-02-21T08:02:08;5.80;90.50
27368;DHT22;14839;48.106;11.618;2024-02-21T08:04:35;5.90;90.30
27368;DHT22;14839;48.106;11.618;2024-02-21T08:07:00;6.00;90.30
27368;DHT22;14839;48.106;11.618;2024-02-21T08:09:28;6.30;90.60
27368;DHT22;14839;48.106;11.618;2024-02-21T08:11:54;6.80;90.10
27368;DHT22;14839;48.106;11.618;2024-02-21T08:14:20;7.10;87.40
27368;DHT22;14839;48.106;11.618;2024-02-21T08:16:46;7.40;87.20
27368;DHT22;14839;48.106;11.618;2024-02-21T08:19:11;8.10;84.50
27368;DHT22;14839;48.106;11.618;2024-02-21T08:21:37;8.70;82.40
27368;DHT22;14839;48.106;11.618;2024-02-21T08:24:03;9.50;80.60
27368;DHT22;14839;48.106;11.618;2024-02-21T08:26:28;10.30;77.30
27368;DHT22;14839;48.106;11.618;2024-02-21T08:28:56;10.60;76.00
27368;DHT22;14839;48.106;11.618;2024-02-21T08:31:25;10.90;72.40
27368;DHT22;14839;48.106;11.618;2024-02-21T08:33:57;11.10;72.80
27368;DHT22;14839;48.106;11.618;2024-02-21T08:36:28;11.30;71.80
27368;DHT22;14839;48.106;11.618;2024-02-21T08:38:54;12.20;67.70
27368;DHT22;14839;48.106;11.618;2024-02-21T08:41:20;12.20;68.50
27368;DHT22;14839;48.106;11.618;2024-02-21T08:43:48;12.30;68.20
27368;DHT22;14839;48.106;11.618;2024-02-21T08:46:14;12.20;66.50
27368;DHT22;14839;48.106;11.618;2024-02-21T08:48:40;11.80;66.70
27368;DHT22;14839;48.106;11.618;2024-02-21T08:51:06;11.80;67.90
27368;DHT22;14839;48.106;11.618;2024-02-21T08:53:31;12.20;67.00
27368;DHT22;14839;48.106;11.618;2024-02-21T08:55:57;12.40;66.40
27368;DHT22;14839;48.106;11.618;2024-02-21T08:58:22;12.30;64.90
27368;DHT22;14839;48.106;11.618;2024-02-21T09:00:49;12.40;65.00
27368;DHT22;14839;48.106;11.618;2024-02-21T09:03:16;12.30;64.00
27368;DHT22;14839;48.106;11.618;2024-02-21T09:05:43;12.20;64.00
27368;DHT22;14839;48.106;11.618;2024-02-21T09:08:08;12.90;61.60
27368;DHT22;14839;48.106;11.618;2024-02-21T09:10:34;13.20;60.20
27368;DHT22;14839;48.106;11.618;2024-02-21T09:13:00;13.60;59.70
27368;DHT22;14839;48.106;11.618;2024-02-21T09:15:25;13.80;57.60
27368;DHT22;14839;48.106;11.618;2024-02-21T09:17:52;14.10;57.00
27368;DHT22;14839;48.106;11.618;2024-02-21T09:20:17;14.10;56.60
27368;DHT22;14839;48.106;11.618;2024-02-21T09:22:43;14.20;57.20
27368;DHT22;14839;48.106;11.618;2024-02-21T09:25:09;14.90;55.10
27368;DHT22;14839;48.106;11.618;2024-02-21T09:27:37;15.00;54.10
27368;DHT22;14839;48.106;11.618;2024-02-21T09:30:03;14.50;54.70
27368;DHT22;14839;48.106;11.618;2024-02-21T09:32:30;14.40;54.70
27368;DHT22;14839;48.106;11.618;2024-02-21T09:34:55;14.70;53.30
27368;DHT22;14839;48.106;11.618;2024-02-21T09:37:21;14.30;52.90
27368;DHT22;14839;48.106;11.618;2024-02-21T09:39:47;14.00;54.80
27368;DHT22;14839;48.106;11.618;2024-02-21T09:42:14;14.10;56.30
27368;DHT22;14839;48.106;11.618;2024-02-21T09:44:43;14.80;54.20
27368;DHT22;14839;48.106;11.618;2024-02-21T09:47:15;15.20;52.20
27368;DHT22;14839;48.106;11.618;2024-02-21T09:49:42;15.20;51.30
27368;DHT22;14839;48.106;11.618;2024-02-21T09:52:09;15.00;51.10
27368;DHT22;14839;48.106;11.618;2024-02-21T09:54:37;14.80;51.10
27368;DHT22;14839;48.106;11.618;2024-02-21T09:57:03;15.30;51.60
27368;DHT22;14839;48.106;11.618;2024-02-21T09:59:31;15.50;50.80
27368;DHT22;14839;48.106;11.618;2024-02-21T10:01:57;15.40;50.80
27368;DHT22;14839;48.106;11.618;2024-02-21T10:04:24;15.70;51.90
27368;DHT22;14839;48.106;11.618;2024-02-21T10:06:50;15.70;50.50
27368;DHT22;14839;48.106;11.618;2024-02-21T10:09:23;15.90;50.70
27368;DHT22;14839;48.106;11.618;2024-02-21T10:11:49;15.40;50.80
27368;DHT22;14839;48.106;11.618;2024-02-21T10:14:16;15.40;52.00
27368;DHT22;14839;48.106;11.618;2024-02-21T10:16:41;15.70;51.10
27368;DHT22;14839;48.106;11.618;2024-02-21T10:19:19;15.80;51.00
27368;DHT22;14839;48.106;11.618;2024-02-21T10:21:57;16.00;50.80
27368;DHT22;14839;48.106;11.618;2024-02-21T10:24:29;16.20;49.90
27368;DHT22;14839;48.106;11.618;2024-02-21T10:27:08;15.70;49.50
27368;DHT22;14839;48.106;11.618;2024-02-21T10:29:34;15.20;51.60
27368;DHT22;14839;48.106;11.618;2024-02-21T10:32:11;15.30;52.40
27368;DHT22;14839;48.106;11.618;2024-02-21T10:34:39;15.60;52.20
27368;DHT22;14839;48.106;11.618;2024-02-21T10:37:09;15.40;52.20
27368;DHT22;14839;48.106;11.618;2024-02-21T10:39:39;15.50;53.50
27368;DHT22;14839;48.106;11.618;2024-02-21T10:42:05;15.70;52.00
27368;DHT22;14839;48.106;11.618;2024-02-21T10:44:32;15.70;51.60
27368;DHT22;14839;48.106;11.618;2024-02-21T10:46:58;15.40;52.20
27368;DHT22;14839;48.106;11.618;2024-02-21T10:49:27;15.30;53.20
27368;DHT22;14839;48.106;11.618;2024-02-21T10:54:48;15.10;50.80
27368;DHT22;14839;48.106;11.618;2024-02-21T10:57:17;15.20;50.40
27368;DHT22;14839;48.106;11.618;2024-02-21T10:59:45;15.20;47.40
27368;DHT22;14839;48.106;11.618;2024-02-21T11:02:11;15.50;48.30
27368;DHT22;14839;48.106;11.618;2024-02-21T11:04:37;15.20;50.40
27368;DHT22;14839;48.106;11.618;2024-02-21T11:07:05;15.20;49.60
27368;DHT22;14839;48.106;11.618;2024-02-21T11:09:31;15.30;51.30
27368;DHT22;14839;48.106;11.618;2024-02-21T11:12:05;15.50;49.90
27368;DHT22;14839;48.106;11.618;2024-02-21T11:14:31;15.70;49.30
27368;DHT22;14839;48.106;11.618;2024-02-21T11:17:18;15.50;46.80
27368;DHT22;14839;48.106;11.618;2024-02-21T11:19:44;15.50;47.10
27368;DHT22;14839;48.106;11.618;2024-02-21T11:22:19;15.40;47.10
27368;DHT22;14839;48.106;11.618;2024-02-21T11:24:48;15.20;45.80
27368;DHT22;14839;48.106;11.618;2024-02-21T11:27:21;15.20;47.10
27368;DHT22;14839;48.106;11.618;2024-02-21T11:29:48;15.30;47.60
27368;DHT22;14839;48.106;11.618;2024-02-21T11:32:17;15.30;46.40
27368;DHT22;14839;48.106;11.618;2024-02-21T11:35:19;15.40;45.90
27368;DHT22;14839;48.106;11.618;2024-02-21T11:37:44;15.40;45.40
27368;DHT22;14839;48.106;11.618;2024-02-21T11:40:12;15.40;47.30
27368;DHT22;14839;48.106;11.618;2024-02-21T11:42:38;15.40;47.30
27368;DHT22;14839;48.106;11.618;2024-02-21T11:45:04;15.10;46.50
27368;DHT22;14839;48.106;11.618;2024-02-21T11:47:30;15.30;47.40
27368;DHT22;14839;48.106;11.618;2024-02-21T11:49:55;15.20;46.80
27368;DHT22;14839;48.106;11.618;2024-02-21T11:52:25;15.30;45.90
27368;DHT22;14839;48.106;11.618;2024-02-21T11:54:52;15.10;45.10
27368;DHT22;14839;48.106;11.618;2024-02-21T11:57:20;14.90;46.70
27368;DHT22;14839;48.106;11.618;2024-02-21T11:59:46;14.80;45.60
27368;DHT22;14839;48.106;11.618;2024-02-21T12:02:12;14.60;48.50
27368;DHT22;14839;48.106;11.618;2024-02-21T12:04:38;14.40;46.50
27368;DHT22;14839;48.106;11.618;2024-02-21T12:07:04;14.40;46.80
27368;DHT22;14839;48.106;11.618;2024-02-21T12:09:30;14.50;47.70
27368;DHT22;14839;48.106;11.618;2024-02-21T12:12:04;14.90;47.60
27368;DHT22;14839;48.106;11.618;2024-02-21T12:14:31;14.90;45.60
27368;DHT22;14839;48.106;11.618;2024-02-21T12:16:58;14.60;47.60
27368;DHT22;14839;48.106;11.618;2024-02-21T12:19:23;14.60;47.70
27368;DHT22;14839;48.106;11.618;2024-02-21T12:21:49;14.80;45.50
27368;DHT22;14839;48.106;11.618;2024-02-21T12:24:24;14.90;47.30
27368;DHT22;14839;48.106;11.618;2024-02-21T12:26:51;15.00;46.20
27368;DHT22;14839;48.106;11.618;2024-02-21T12:29:18;15.10;45.40
27368;DHT22;14839;48.106;11.618;2024-02-21T12:31:44;15.10;45.50
27368;DHT22;14839;48.106;11.618;2024-02-21T12:34:10;14.90;44.80
27368;DHT22;14839;48.106;11.618;2024-02-21T12:36:45;14.90;43.30
27368;DHT22;14839;48.106;11.618;2024-02-21T12:39:12;15.00;43.60
27368;DHT22;14839;48.106;11.618;2024-02-21T12:41:39;14.90;43.10
27368;DHT22;14839;48.106;11.618;2024-02-21T12:44:06;15.00;43.90
27368;DHT22;14839;48.106;11.618;2024-02-21T12:46:36;14.90;44.90
27368;DHT22;14839;48.106;11.618;2024-02-21T12:49:03;14.90;45.10
27368;DHT22;14839;48.106;11.618;2024-02-21T12:51:29;14.80;44.30
27368;DHT22;14839;48.106;11.618;2024-02-21T12:53:55;14.60;43.00
27368;DHT22;14839;48.106;11.618;2024-02-21T12:56:21;14.60;43.60
27368;DHT22;14839;48.106;11.618;2024-02-21T12:58:47;14.70;43.60
27368;DHT22;14839;48.106;11.618;2024-02-21T13:01:12;14.70;42.50
27368;DHT22;14839;48.106;11.618;2024-02-21T13:03:38;14.70;42.50
27368;DHT22;14839;48.106;11.618;2024-02-21T13:06:04;14.60;43.60
27368;DHT22;14839;48.106;11.618;2024-02-21T13:08:30;14.70;43.10
27368;DHT22;14839;48.106;11.618;2024-02-21T13:10:56;14.50;44.80
27368;DHT22;14839;48.106;11.618;2024-02-21T13:13:21;14.60;45.10
27368;DHT22;14839;48.106;11.618;2024-02-21T13:15:47;14.70;44.20
27368;DHT22;14839;48.106;11.618;2024-02-21T13:18:12;14.70;44.60
27368;DHT22;14839;48.106;11.618;2024-02-21T13:20:38;14.60;44.60
27368;DHT22;14839;48.106;11.618;2024-02-21T13:23:04;14.50;45.10
27368;DHT22;14839;48.106;11.618;2024-02-21T13:25:29;14.70;44.50
27368;DHT22;14839;48.106;11.618;2024-02-21T13:27:55;14.60;43.60
27368;DHT22;14839;48.106;11.618;2024-02-21T13:30:22;14.70;43.60
27368;DHT22;14839;48.106;11.618;2024-02-21T13:32:48;14.70;42.80
27368;DHT22;14839;48.106;11.618;2024-02-21T13:35:14;14.70;43.00
27368;DHT22;14839;48.106;11.618;2024-02-21T13:37:43;14.60;43.10
27368;DHT22;14839;48.106;11.618;2024-02-21T13:40:09;14.50;43.10
27368;DHT22;14839;48.106;11.618;2024-02-21T13:42:35;14.60;43.30
27368;DHT22;14839;48.106;11.618;2024-02-21T13:45:01;14.60;42.70
27368;DHT22;14839;48.106;11.618;2024-02-21T13:47:27;14.60;42.40
27368;DHT22;14839;48.106;11.618;2024-02-21T13:50:14;14.50;42.80
27368;DHT22;14839;48.106;11.618;2024-02-21T13:53:11;14.40;43.70
27368;DHT22;14839;48.106;11.618;2024-02-21T14:06:31;14.40;40.50
27368;DHT22;14839;48.106;11.618;2024-02-21T14:16:47;14.40;40.80
27368;DHT22;14839;48.106;11.618;2024-02-21T14:19:14;14.50;40.50
27368;DHT22;14839;48.106;11.618;2024-02-21T14:21:39;14.60;39.90
27368;DHT22;14839;48.106;11.618;2024-02-21T14:24:06;14.60;41.20
27368;DHT22;14839;48.106;11.618;2024-02-21T14:26:31;14.60;40.90
27368;DHT22;14839;48.106;11.618;2024-02-21T14:28:57;14.50;42.10
27368;DHT22;14839;48.106;11.618;2024-02-21T14:31:23;14.40;44.00
27368;DHT22;14839;48.106;11.618;2024-02-21T14:33:49;14.40;44.90
27368;DHT22;14839;48.106;11.618;2024-02-21T14:36:14;14.30;44.50
27368;DHT22;14839;48.106;11.618;2024-02-21T14:38:44;14.30;44.60
27368;DHT22;14839;48.106;11.618;2024-02-21T14:41:10;14.30;44.60
27368;DHT22;14839;48.106;11.618;2024-02-21T14:43:39;14.20;45.90
27368;DHT22;14839;48.106;11.618;2024-02-21T14:46:05;14.20;45.90
27368;DHT22;14839;48.106;11.618;2024-02-21T14:48:31;14.20;45.60
27368;DHT22;14839;48.106;11.618;2024-02-21T14:50:58;14.20;45.90
27368;DHT22;14839;48.106;11.618;2024-02-21T14:53:24;14.00;45.50
27368;DHT22;14839;48.106;11.618;2024-02-21T14:55:49;13.90;45.90
27368;DHT22;14839;48.106;11.618;2024-02-21T14:58:16;13.80;45.80
27368;DHT22;14839;48.106;11.618;2024-02-21T15:00:43;13.70;47.30
27368;DHT22;14839;48.106;11.618;2024-02-21T15:03:09;13.70;47.70
27368;DHT22;14839;48.106;11.618;2024-02-21T15:05:36;13.70;47.90
27368;DHT22;14839;48.106;11.618;2024-02-21T15:08:02;13.70;47.90
27368;DHT22;14839;48.106;11.618;2024-02-21T15:10:28;13.70;48.20
27368;DHT22;14839;48.106;11.618;2024-02-21T15:12:54;13.70;48.60
27368;DHT22;14839;48.106;11.618;2024-02-21T15:15:20;13.60;49.30
27368;DHT22;14839;48.106;11.618;2024-02-21T15:17:45;13.60;47.70
27368;DHT22;14839;48.106;11.618;2024-02-21T15:20:11;13.60;47.40
27368;DHT22;14839;48.106;11.618;2024-02-21T15:22:37;13.60;46.80
27368;DHT22;14839;48.106;11.618;2024-02-21T15:25:04;13.50;47.30
27368;DHT22;14839;48.106;11.618;2024-02-21T15:27:33;13.50;47.70
27368;DHT22;14839;48.106;11.618;2024-02-21T15:29:59;13.30;48.60
27368;DHT22;14839;48.106;11.618;2024-02-21T15:32:26;13.30;49.30
27368;DHT22;14839;48.106;11.618;2024-02-21T15:34:53;13.20;50.20
27368;DHT22;14839;48.106;11.618;2024-02-21T15:37:18;13.10;48.90
27368;DHT22;14839;48.106;11.618;2024-02-21T15:39:45;13.10;49.30
27368;DHT22;14839;48.106;11.618;2024-02-21T15:42:10;13.00;50.20
27368;DHT22;14839;48.106;11.618;2024-02-21T15:44:36;13.00;50.70
27368;DHT22;14839;48.106;11.618;2024-02-21T15:47:02;12.90;50.70
27368;DHT22;14839;48.106;11.618;2024-02-21T15:49:28;12.90;51.40
27368;DHT22;14839;48.106;11.618;2024-02-21T15:51:53;12.80;51.40
27368;DHT22;14839;48.106;11.618;2024-02-21T15:54:20;12.70;51.70
27368;DHT22;14839;48.106;11.618;2024-02-21T15:56:45;12.60;51.70
27368;DHT22;14839;48.106;11.618;2024-02-21T15:59:12;12.50;51.90
27368;DHT22;14839;48.106;11.618;2024-02-21T16:01:37;12.50;52.30
27368;DHT22;14839;48.106;11.618;2024-02-21T16:04:07;12.40;52.70
27368;DHT22;14839;48.106;11.618;2024-02-21T16:06:33;12.30;53.30
27368;DHT22;14839;48.106;11.618;2024-02-21T16:08:59;12.20;54.10
27368;DHT22;14839;48.106;11.618;2024-02-21T16:11:25;12.10;54.10
27368;DHT22;14839;48.106;11.618;2024-02-21T16:13:51;12.10;55.10
27368;DHT22;14839;48.106;11.618;2024-02-21T16:16:18;12.00;55.40
27368;DHT22;14839;48.106;11.618;2024-02-21T16:18:44;11.90;56.00
27368;DHT22;14839;48.106;11.618;2024-02-21T16:21:10;11.80;56.70
27368;DHT22;14839;48.106;11.618;2024-02-21T16:23:37;11.70;57.30
27368;DHT22;14839;48.106;11.618;2024-02-21T16:26:02;11.60;57.80
27368;DHT22;14839;48.106;11.618;2024-02-21T16:28:28;11.50;58.80
27368;DHT22;14839;48.106;11.618;2024-02-21T16:30:54;11.50;59.40
27368;DHT22;14839;48.106;11.618;2024-02-21T16:33:21;11.40;59.40
27368;DHT22;14839;48.106;11.618;2024-02-21T16:35:47;11.30;60.50
27368;DHT22;14839;48.106;11.618;2024-02-21T16:38:13;11.20;61.00
27368;DHT22;14839;48.106;11.618;2024-02-21T16:40:38;11.10;61.00
27368;DHT22;14839;48.106;11.618;2024-02-21T16:43:06;11.00;62.20
27368;DHT22;14839;48.106;11.618;2024-02-21T16:45:31;11.00;63.20
27368;DHT22;14839;48.106;11.618;2024-02-21T16:47:57;10.90;64.00
27368;DHT22;14839;48.106;11.618;2024-02-21T16:50:23;10.80;65.00
27368;DHT22;14839;48.106;11.618;2024-02-21T16:52:49;10.70;66.40
27368;DHT22;14839;48.106;11.618;2024-02-21T16:55:15;10.60;65.80
27368;DHT22;14839;48.106;11.618;2024-02-21T16:57:42;10.50;66.10
27368;DHT22;14839;48.106;11.618;2024-02-21T17:00:08;10.40;67.30
27368;DHT22;14839;48.106;11.618;2024-02-21T17:02:40;10.40;67.70
27368;DHT22;14839;48.106;11.618;2024-02-21T17:05:07;10.30;67.90
27368;DHT22;14839;48.106;11.618;2024-02-21T17:07:33;10.20;68.50
27368;DHT22;14839;48.106;11.618;2024-02-21T17:09:59;10.20;68.30
27368;DHT22;14839;48.106;11.618;2024-02-21T17:12:25;10.20;67.90
27368;DHT22;14839;48.106;11.618;2024-02-21T17:14:50;10.20;67.30
27368;DHT22;14839;48.106;11.618;2024-02-21T17:17:16;10.10;67.60
27368;DHT22;14839;48.106;11.618;2024-02-21T17:19:42;10.10;68.20
27368;DHT22;14839;48.106;11.618;2024-02-21T17:22:08;10.10;69.20
27368;DHT22;14839;48.106;11.618;2024-02-21T17:24:34;10.10;70.30
27368;DHT22;14839;48.106;11.618;2024-02-21T17:26:59;10.00;71.20
27368;DHT22;14839;48.106;11.618;2024-02-21T17:29:25;10.00;71.30
27368;DHT22;14839;48.106;11.618;2024-02-21T17:31:52;9.90;72.10
27368;DHT22;14839;48.106;11.618;2024-02-21T17:34:17;9.90;73.00
27368;DHT22;14839;48.106;11.618;2024-02-21T17:36:43;9.80;74.20
27368;DHT22;14839;48.106;11.618;2024-02-21T17:39:10;9.70;75.50
27368;DHT22;14839;48.106;11.618;2024-02-21T17:41:36;9.70;77.20
27368;DHT22;14839;48.106;11.618;2024-02-21T17:44:02;9.60;78.40
27368;DHT22;14839;48.106;11.618;2024-02-21T17:46:28;9.50;79.30
27368;DHT22;14839;48.106;11.618;2024-02-21T17:48:53;9.40;79.90
27368;DHT22;14839;48.106;11.618;2024-02-21T17:51:20;9.40;80.90
27368;DHT22;14839;48.106;11.618;2024-02-21T17:53:46;9.30;81.70
27368;DHT22;14839;48.106;11.618;2024-02-21T17:56:11;9.30;82.30
27368;DHT22;14839;48.106;11.618;2024-02-21T17:58:37;9.20;83.60
27368;DHT22;14839;48.106;11.618;2024-02-21T18:01:03;9.10;84.10
27368;DHT22;14839;48.106;11.618;2024-02-21T18:03:29;9.00;84.80
27368;DHT22;14839;48.106;11.618;2024-02-21T18:06:01;9.00;85.30
27368;DHT22;14839;48.106;11.618;2024-02-21T18:08:28;8.90;85.60
27368;DHT22;14839;48.106;11.618;2024-02-21T18:10:54;8.80;85.90
27368;DHT22;14839;48.106;11.618;2024-02-21T18:13:20;8.80;86.30
27368;DHT22;14839;48.106;11.618;2024-02-21T18:15:47;8.80;86.60
27368;DHT22;14839;48.106;11.618;2024-02-21T18:18:12;8.70;86.80
27368;DHT22;14839;48.106;11.618;2024-02-21T18:20:38;8.70;86.90
27368;DHT22;14839;48.106;11.618;2024-02-21T18:23:04;8.60;86.90
27368;DHT22;14839;48.106;11.618;2024-02-21T18:25:29;8.50;87.20
27368;DHT22;14839;48.106;11.618;2024-02-21T18:27:56;8.40;87.50
27368;DHT22;14839;48.106;11.618;2024-02-21T18:30:22;8.40;88.10
27368;DHT22;14839;48.106;11.618;2024-02-21T18:32:48;8.30;88.10
27368;DHT22;14839;48.106;11.618;2024-02-21T18:35:17;8.30;88.70
27368;DHT22;14839;48.106;11.618;2024-02-21T18:37:45;8.20;89.30
27368;DHT22;14839;48.106;11.618;2024-02-21T18:40:11;8.10;89.50
27368;DHT22;14839;48.106;11.618;2024-02-21T18:42:37;8.10;89.80
27368;DHT22;14839;48.106;11.618;2024-02-21T18:45:03;8.10;90.10
27368;DHT22;14839;48.106;11.618;2024-02-21T18:47:30;8.10;90.10
27368;DHT22;14839;48.106;11.618;2024-02-21T18:49:56;8.20;90.10
27368;DHT22;14839;48.106;11.618;2024-02-21T18:52:22;8.20;90.10
27368;DHT22;14839;48.106;11.618;2024-02-21T18:54:47;8.20;90.10
27368;DHT22;14839;48.106;11.618;2024-02-21T18:57:13;8.20;90.10
27368;DHT22;14839;48.106;11.618;2024-02-21T18:59:41;8.20;90.20
27368;DHT22;14839;48.106;11.618;2024-02-21T19:02:06;8.20;90.20
27368;DHT22;14839;48.106;11.618;2024-02-21T19:04:32;8.20;90.20
27368;DHT22;14839;48.106;11.618;2024-02-21T19:06:58;8.20;90.10
27368;DHT22;14839;48.106;11.618;2024-02-21T19:09:23;8.20;90.20
27368;DHT22;14839;48.106;11.618;2024-02-21T19:11:49;8.20;90.20
27368;DHT22;14839;48.106;11.618;2024-02-21T19:14:15;8.20;90.50
27368;DHT22;14839;48.106;11.618;2024-02-21T19:16:40;8.10;90.60
27368;DHT22;14839;48.106;11.618;2024-02-21T19:19:06;8.10;90.70
27368;DHT22;14839;48.106;11.618;2024-02-21T19:21:31;8.10;90.90
27368;DHT22;14839;48.106;11.618;2024-02-21T19:23:57;8.00;91.00
27368;DHT22;14839;48.106;11.618;2024-02-21T19:26:23;7.90;91.30
27368;DHT22;14839;48.106;11.618;2024-02-21T19:28:48;7.90;91.50
27368;DHT22;14839;48.106;11.618;2024-02-21T19:31:14;7.90;91.90
27368;DHT22;14839;48.106;11.618;2024-02-21T19:33:40;7.80;91.90
27368;DHT22;14839;48.106;11.618;2024-02-21T19:36:06;7.80;92.30
27368;DHT22;14839;48.106;11.618;2024-02-21T19:38:34;7.70;92.70
27368;DHT22;14839;48.106;11.618;2024-02-21T19:41:00;7.70;93.00
27368;DHT22;14839;48.106;11.618;2024-02-21T19:43:26;7.70;93.20
27368;DHT22;14839;48.106;11.618;2024-02-21T19:45:51;7.70;93.30
27368;DHT22;14839;48.106;11.618;2024-02-21T19:48:18;7.70;93.40
27368;DHT22;14839;48.106;11.618;2024-02-21T19:50:44;7.60;93.60
27368;DHT22;14839;48.106;11.618;2024-02-21T19:53:10;7.60;93.70
27368;DHT22;14839;48.106;11.618;2024-02-21T19:55:36;7.50;94.00
27368;DHT22;14839;48.106;11.618;2024-02-21T19:58:02;7.50;94.10
27368;DHT22;14839;48.106;11.618;2024-02-21T20:00:28;7.50;94.30
27368;DHT22;14839;48.106;11.618;2024-02-21T20:02:54;7.40;94.50
27368;DHT22;14839;48.106;11.618;2024-02-21T20:05:19;7.40;94.50
27368;DHT22;14839;48.106;11.618;2024-02-21T20:07:45;7.40;94.60
27368;DHT22;14839;48.106;11.618;2024-02-21T20:10:11;7.40;94.60
27368;DHT22;14839;48.106;11.618;2024-02-21T20:12:38;7.40;94.60
27368;DHT22;14839;48.106;11.618;2024-02-21T20:15:06;7.30;94.60
27368;DHT22;14839;48.106;11.618;2024-02-21T20:17:32;7.20;94.60
27368;DHT22;14839;48.106;11.618;2024-02-21T20:19:58;7.20;94.60
27368;DHT22;14839;48.106;11.618;2024-02-21T20:22:24;7.30;94.60
27368;DHT22;14839;48.106;11.618;2024-02-21T20:24:50;7.30;94.60
27368;DHT22;14839;48.106;11.618;2024-02-21T20:27:15;7.30;94.60
27368;DHT22;14839;48.106;11.618;2024-02-21T20:29:41;7.30;94.60
27368;DHT22;14839;48.106;11.618;2024-02-21T20:32:07;7.30;94.60
27368;DHT22;14839;48.106;11.618;2024-02-21T20:34:33;7.30;94.60
27368;DHT22;14839;48.106;11.618;2024-02-21T20:36:58;7.40;94.60
27368;DHT22;14839;48.106;11.618;2024-02-21T20:39:24;7.40;94.60
27368;DHT22;14839;48.106;11.618;2024-02-21T20:41:50;7.40;94.60